Map

Track Data

SID SEASON NUMBER BASIN SUBBASIN NAME ISO_TIME NATURE LAT LON WMO_WIND WMO_PRES WMO_AGENCY TRACK_TYPE DIST2LAND LANDFALL IFLAG USA_AGENCY USA_ATCF_ID USA_LAT USA_LON USA_RECORD USA_STATUS USA_WIND USA_PRES USA_SSHS USA_R34_NE USA_R34_SE USA_R34_SW USA_R34_NW USA_R50_NE USA_R50_SE USA_R50_SW USA_R50_NW USA_R64_NE USA_R64_SE USA_R64_SW USA_R64_NW USA_POCI USA_ROCI USA_RMW USA_EYE TOKYO_LAT TOKYO_LON TOKYO_GRADE TOKYO_WIND TOKYO_PRES TOKYO_R50_DIR TOKYO_R50_LONG TOKYO_R50_SHORT TOKYO_R30_DIR TOKYO_R30_LONG TOKYO_R30_SHORT TOKYO_LAND CMA_LAT CMA_LON CMA_CAT CMA_WIND CMA_PRES HKO_LAT HKO_LON HKO_CAT HKO_WIND HKO_PRES NEWDELHI_LAT NEWDELHI_LON NEWDELHI_GRADE NEWDELHI_WIND NEWDELHI_PRES NEWDELHI_CI NEWDELHI_DP NEWDELHI_POCI REUNION_LAT REUNION_LON REUNION_TYPE REUNION_WIND REUNION_PRES REUNION_TNUM REUNION_CI REUNION_RMW REUNION_R34_NE REUNION_R34_SE REUNION_R34_SW REUNION_R34_NW REUNION_R50_NE REUNION_R50_SE REUNION_R50_SW REUNION_R50_NW REUNION_R64_NE REUNION_R64_SE REUNION_R64_SW REUNION_R64_NW BOM_LAT BOM_LON BOM_TYPE BOM_WIND BOM_PRES BOM_TNUM BOM_CI BOM_RMW BOM_R34_NE BOM_R34_SE BOM_R34_SW BOM_R34_NW BOM_R50_NE BOM_R50_SE BOM_R50_SW BOM_R50_NW BOM_R64_NE BOM_R64_SE BOM_R64_SW BOM_R64_NW BOM_ROCI BOM_POCI BOM_EYE BOM_POS_METHOD BOM_PRES_METHOD NADI_LAT NADI_LON NADI_CAT NADI_WIND NADI_PRES WELLINGTON_LAT WELLINGTON_LON WELLINGTON_WIND WELLINGTON_PRES DS824_LAT DS824_LON DS824_STAGE DS824_WIND DS824_PRES TD9636_LAT TD9636_LON TD9636_STAGE TD9636_WIND TD9636_PRES TD9635_LAT TD9635_LON TD9635_WIND TD9635_PRES TD9635_ROCI NEUMANN_LAT NEUMANN_LON NEUMANN_CLASS NEUMANN_WIND NEUMANN_PRES MLC_LAT MLC_LON MLC_CLASS MLC_WIND MLC_PRES USA_GUST BOM_GUST BOM_GUST_PER REUNION_GUST REUNION_GUST_PER USA_SEAHGT USA_SEARAD_NE USA_SEARAD_SE USA_SEARAD_SW USA_SEARAD_NW STORM_SPEED STORM_DIR
2000331N09092 2000 107 NI BB NOT_NAMED 2000-11-26 03:00:00 NR 8.50000 91.5000 25 1004 newdelhi main 522 522 ____O_________ -1 8.50000 91.5000 D 25 1004 1.50000 4 21 318
2000331N09092 2000 107 NI BB NOT_NAMED 2000-11-26 06:00:00 TS 9.26667 90.8000 25 1004 newdelhi main 638 621 O___O_________ jtwc_io IO032000 8.80000 91.4000 TD 30 -1 9.50000 90.5000 D 25 1004 1.50000 4 10 326
2000331N09092 2000 107 NI BB NOT_NAMED 2000-11-26 09:00:00 TS 9.32007 90.9401 25 1004 newdelhi main 630 630 P___O_________ IO032000 9.05017 90.8502 TD 32 -1 9.50000 91.0000 D 25 1004 1.50000 4 10 295
2000331N09092 2000 107 NI BB NOT_NAMED 2000-11-26 12:00:00 TS 9.70000 89.8429 25 1004 newdelhi main 752 750 O___O_________ jtwc_io IO032000 9.30000 90.3000 TS 35 0 10.0000 89.5000 D 25 1004 1.50000 4 11 293
2000331N09092 2000 107 NI BB NOT_NAMED 2000-11-26 15:00:00 TS 9.77496 89.8750 30 1004 newdelhi main 750 750 P___O_________ IO032000 9.54991 89.7499 TS 35 0 10.0000 90.0000 DD 30 1004 2.00000 6 3 310
2000331N09092 2000 107 NI BB NOT_NAMED 2000-11-26 18:00:00 TS 9.90000 89.6000 30 1002 newdelhi main 783 783 O___O_________ jtwc_io IO032000 9.80000 89.2000 TS 35 0 10.0000 90.0000 DD 30 1002 2.00000 6 10 289
2000331N09092 2000 107 NI BB NOT_NAMED 2000-11-26 21:00:00 TS 10.1074 88.8757 main 829 760 P___P_________ IO032000 10.0574 88.6574 TS 35 0 10.1574 89.0940 DD 30 1002 6 16 288
2000331N09092 2000 107 NI BB NOT_NAMED 2000-11-27 00:00:00 TS 10.4000 88.0500 30 1002 newdelhi main 760 714 O___O_________ jtwc_io IO032000 10.3000 88.1000 TS 35 0 10.5000 88.0000 DD 30 1002 2.00000 6 15 296
2000331N09092 2000 107 NI BB NOT_NAMED 2000-11-27 03:00:00 TS 10.7575 87.5000 30 1004 newdelhi main 719 670 P___O_________ IO032000 10.5150 87.5000 TS 40 0 11.0000 87.5000 DD 30 1004 2.00000 6 12 293
2000331N09092 2000 107 NI BB NOT_NAMED 2000-11-27 06:00:00 TS 10.8500 86.9500 30 1002 newdelhi main 675 625 O___O_________ jtwc_io IO032000 10.7000 86.9000 TS 45 0 11.0000 87.0000 DD 30 1002 2.00000 8 11 279
2000331N09092 2000 107 NI BB NOT_NAMED 2000-11-27 09:00:00 TS 10.9324 86.4287 35 998 newdelhi main 615 573 P___O_________ IO032000 10.8648 86.3574 TS 45 0 11.0000 86.5000 CS 35 998 2.50000 10 10 278
2000331N09092 2000 107 NI BB NOT_NAMED 2000-11-27 12:00:00 TS 11.0000 85.9000 45 998 newdelhi main 573 517 O___O_________ jtwc_io IO032000 11.0000 85.8000 TS 45 0 11.0000 86.0000 CS 45 998 3.00000 10 11 276
2000331N09092 2000 107 NI BB NOT_NAMED 2000-11-27 15:00:00 TS 11.0463 85.3174 45 998 newdelhi main 517 477 P___O_________ IO032000 11.0926 85.1349 TS 47 0 11.0000 85.5000 CS 45 998 3.00000 10 11 275
2000331N09092 2000 107 NI BB NOT_NAMED 2000-11-27 18:00:00 TS 11.1000 84.7500 45 998 newdelhi main 477 438 O___O_________ jtwc_io IO032000 11.2000 84.5000 TS 50 0 11.0000 85.0000 CS 45 998 3.00000 10 10 279
2000331N09092 2000 107 NI BB NOT_NAMED 2000-11-27 21:00:00 TS 11.2073 84.2675 45 998 newdelhi main 438 407 P___O_________ IO032000 11.4147 84.0351 TS 52 0 11.0000 84.5000 CS 45 998 3.00000 10 10 296
2000331N09092 2000 107 NI BB NOT_NAMED 2000-11-28 00:00:00 TS 11.5500 83.8000 55 992 newdelhi main 404 352 O___O_________ jtwc_io IO032000 11.6000 83.6000 TS 55 0 11.5000 84.0000 SCS 55 992 3.50000 15 11 290
2000331N09092 2000 107 NI BB NOT_NAMED 2000-11-28 03:00:00 TS 11.5688 83.2637 55 992 newdelhi main 352 300 P___O_________ IO032000 11.6377 83.0274 TS 55 0 11.5000 83.5000 SCS 55 992 3.50000 15 10 270
2000331N09092 2000 107 NI BB NOT_NAMED 2000-11-28 06:00:00 TS 11.5500 82.7500 65 986 newdelhi main 300 254 O___O_________ jtwc_io IO032000 11.6000 82.5000 TS 55 0 11.5000 83.0000 VSCS 65 986 4.00000 20 9 267
2000331N09092 2000 107 NI BB NOT_NAMED 2000-11-28 09:00:00 TS 11.5249 82.3275 65 986 newdelhi main 254 225 P___O_________ IO032000 11.5498 82.1550 TS 60 0 11.5000 82.5000 VSCS 65 986 4.00000 20 8 266
2000331N09092 2000 107 NI BB NOT_NAMED 2000-11-28 12:00:00 TS 11.5000 81.9500 77 978 newdelhi main 225 197 O___O_________ jtwc_io IO032000 11.5000 81.9000 TY 65 1 11.5000 82.0000 VSCS 77 978 4.50000 30 6 267
2000331N09092 2000 107 NI BB NOT_NAMED 2000-11-28 15:00:00 TS 11.4962 81.7250 90 968 newdelhi main 197 177 P___O_________ IO032000 11.4924 81.6500 TY 65 1 11.5000 81.8000 VSCS 90 968 5.00000 40 5 270
2000331N09092 2000 107 NI BB NOT_NAMED 2000-11-28 18:00:00 TS 11.5000 81.4500 102 958 newdelhi main 177 145 O___O_________ jtwc_io IO032000 11.5000 81.4000 TY 65 1 11.5000 81.5000 VSCS 102 958 5.50000 52 6 270
2000331N09092 2000 107 NI BB NOT_NAMED 2000-11-28 21:00:00 TS 11.4963 81.1500 102 958 newdelhi main 145 114 P___O_________ IO032000 11.4925 81.1000 TY 65 1 11.5000 81.2000 VSCS 102 958 5.50000 52 5 270
2000331N09092 2000 107 NI BB NOT_NAMED 2000-11-29 00:00:00 TS 11.5000 80.9000 90 968 newdelhi main 114 73 O___O_________ jtwc_io IO032000 11.5000 80.8000 TY 65 1 11.5000 81.0000 VSCS 90 968 5.00000 40 6 273
2000331N09092 2000 107 NI BB NOT_NAMED 2000-11-29 03:00:00 TS 11.5250 80.5250 90 966 newdelhi main 73 64 P___O_________ IO032000 11.5499 80.5500 TY 65 1 11.5000 80.5000 VSCS 90 966 5.00000 40 5 276
2000331N09092 2000 107 NI BB NOT_NAMED 2000-11-29 06:00:00 TS 11.5500 80.4000 77 976 newdelhi main 65 21 O___O_________ jtwc_io IO032000 11.6000 80.3000 TY 65 1 11.5000 80.5000 VSCS 77 976 4.50000 30 5 274
2000331N09092 2000 107 NI BB NOT_NAMED 2000-11-29 09:00:00 TS 11.5574 80.0188 77 976 newdelhi main 21 10 P___O_________ IO032000 11.6149 80.0375 TY 65 1 11.5000 80.0000 VSCS 77 976 4.50000 30 5 270
2000331N09092 2000 107 NI BB NOT_NAMED 2000-11-29 12:00:00 TS 11.5500 79.8500 55 998 newdelhi main 10 0 O___O_________ jtwc_io IO032000 11.6000 79.7000 TY 65 1 11.5000 80.0000 SCS 55 998 0.00000 10 7 258
2000331N09092 2000 107 NI BB NOT_NAMED 2000-11-29 15:00:00 TS 11.4087 79.2812 main 0 0 P___P_________ IO032000 11.5576 79.2150 TY 60 0 11.2598 79.3475 SCS 50 998 10 13 256
2000331N09092 2000 107 NI BB NOT_NAMED 2000-11-29 18:00:00 TS 11.2500 78.6000 45 998 newdelhi main 0 0 O___O_________ jtwc_io IO032000 11.5000 78.7000 TS 55 0 11.0000 78.5000 CS 45 998 0.00000 10 10 262
2000331N09092 2000 107 NI BB NOT_NAMED 2000-11-29 21:00:00 TS 11.2688 78.3229 main 0 0 P___P_________ IO032000 11.4424 78.2700 TS 50 0 11.0951 78.3758 CS 40 999 8 5 284
2000331N09092 2000 107 NI BB NOT_NAMED 2000-11-30 00:00:00 TS 11.3679 78.1018 main 0 0 O___P_________ jtwc_io IO032000 11.4000 77.9000 TS 45 0 11.3251 78.3709 CS 35 1000 6 6 285
2000331N09092 2000 107 NI AS NOT_NAMED 2000-11-30 03:00:00 TS 11.4232 77.7333 30 1002 newdelhi main 0 0 P___O_________ IO032000 11.3849 77.6000 TS 40 0 11.5000 78.0000 DD 30 1002 0.00000 4 8 274
2000331N09092 2000 107 NI AS NOT_NAMED 2000-11-30 06:00:00 TS 11.4200 77.2400 25 1004 newdelhi main 0 0 O___O_________ jtwc_io IO032000 11.4000 77.3000 TS 35 0 11.5000 77.0000 D 25 1004 0.00000 2 8 272
2000331N09092 2000 107 NI AS NOT_NAMED 2000-11-30 09:00:00 TS 11.4500 76.9151 main 0 0 P_____________ IO032000 11.4500 76.9151 TS 32 -1 7 276
2000331N09092 2000 107 NI AS NOT_NAMED 2000-11-30 12:00:00 TS 11.5000 76.5000 main 0 0 O_____________ jtwc_io IO032000 11.5000 76.5000 TD 30 -1 8 274
2000331N09092 2000 107 NI AS NOT_NAMED 2000-11-30 15:00:00 TS 11.5075 76.0850 main 0 0 P_____________ IO032000 11.5075 76.0850 TD 27 -1 8 270
2000331N09092 2000 107 NI AS NOT_NAMED 2000-11-30 18:00:00 TS 11.5000 75.7000 main 0 0 O_____________ jtwc_io IO032000 11.5000 75.7000 TD 25 -1 7 269
2000331N09092 2000 107 NI AS NOT_NAMED 2000-11-30 21:00:00 TS 11.4924 75.3925 main 21 21 P_____________ IO032000 11.4924 75.3925 TD 27 -1 6 270
2000331N09092 2000 107 NI AS NOT_NAMED 2000-12-01 00:00:00 TS 11.5000 75.1000 main 49 49 O_____________ jtwc_io IO032000 11.5000 75.1000 TD 30 -1 6 274
2000331N09092 2000 107 NI AS NOT_NAMED 2000-12-01 03:00:00 TS 11.5425 74.7425 main 78 70 P_____________ IO032000 11.5425 74.7425 TD 30 -1 7 278
2000331N09092 2000 107 NI AS NOT_NAMED 2000-12-01 06:00:00 TS 11.6000 74.4000 main 97 97 O_____________ jtwc_io IO032000 11.6000 74.4000 TD 30 -1 6 280
2000331N09092 2000 107 NI AS NOT_NAMED 2000-12-01 09:00:00 TS 11.6499 74.1500 main 127 122 P_____________ IO032000 11.6499 74.1500 TD 27 -1 5 282
2000331N09092 2000 107 NI AS NOT_NAMED 2000-12-01 12:00:00 TS 11.7000 73.9000 main 142 142 O_____________ jtwc_io IO032000 11.7000 73.9000 TD 25 -1 6 280
2000331N09092 2000 107 NI AS NOT_NAMED 2000-12-01 15:00:00 TS 11.7499 73.5875 main 171 166 P_____________ IO032000 11.7499 73.5875 TD 27 -1 7 278
2000331N09092 2000 107 NI AS NOT_NAMED 2000-12-01 18:00:00 TS 11.8000 73.2000 main 205 205 O_____________ jtwc_io IO032000 11.8000 73.2000 TD 30 -1 8 278
2000331N09092 2000 107 NI AS NOT_NAMED 2000-12-01 21:00:00 TS 11.8646 72.7825 main 239 239 P_____________ IO032000 11.8646 72.7825 TD 30 -1 10 276
2000331N09092 2000 107 NI AS NOT_NAMED 2000-12-02 00:00:00 TS 11.9000 72.2000 main 300 300 O_____________ jtwc_io IO032000 11.9000 72.2000 TD 30 -1 15 270
2000331N09092 2000 107 NI AS NOT_NAMED 2000-12-02 03:00:00 TS 11.8659 71.2699 main 393 393 P_____________ IO032000 11.8659 71.2699 TD 30 -1 18 267
2000331N09092 2000 107 NI AS NOT_NAMED 2000-12-02 06:00:00 TS 11.8000 70.4000 main 491 491 O_____________ jtwc_io IO032000 11.8000 70.4000 TD 30 -1 12 265
2000331N09092 2000 107 NI AS NOT_NAMED 2000-12-02 09:00:00 TS 11.7494 70.0251 main 536 536 P_____________ IO032000 11.7494 70.0251 TD 30 -1 6 260
2000331N09092 2000 107 NI AS NOT_NAMED 2000-12-02 12:00:00 TS 11.7000 69.8000 main 557 557 O_____________ jtwc_io IO032000 11.7000 69.8000 TD 30 -1 6 262
2000331N09092 2000 107 NI AS NOT_NAMED 2000-12-02 15:00:00 TS 11.6651 69.3925 main 599 599 P_____________ IO032000 11.6651 69.3925 TD 30 -1 8 263
2000331N09092 2000 107 NI AS NOT_NAMED 2000-12-02 18:00:00 TS 11.6000 69.0000 main 644 644 O_____________ jtwc_io IO032000 11.6000 69.0000 TD 30 -1 6 249
2000331N09092 2000 107 NI AS NOT_NAMED 2000-12-02 21:00:00 TS 11.4495 68.8175 main 671 671 P_____________ IO032000 11.4495 68.8175 TD 30 -1 6 238
2000331N09092 2000 107 NI AS NOT_NAMED 2000-12-03 00:00:00 TS 11.3000 68.5000 main 705 705 O_____________ jtwc_io IO032000 11.3000 68.5000 TD 30 -1 11 259
2000331N09092 2000 107 NI AS NOT_NAMED 2000-12-03 03:00:00 TS 11.2282 67.6950 main 793 793 P_____________ IO032000 11.2282 67.6950 TD 32 -1 17 267
2000331N09092 2000 107 NI AS NOT_NAMED 2000-12-03 06:00:00 TS 11.2000 66.8000 main 884 884 O_____________ jtwc_io IO032000 11.2000 66.8000 TS 35 0 14 270
2000331N09092 2000 107 NI AS NOT_NAMED 2000-12-03 09:00:00 TS 11.2220 66.2203 main 941 941 P_____________ IO032000 11.2220 66.2203 TS 35 0 11 270
2000331N09092 2000 107 NI AS NOT_NAMED 2000-12-03 12:00:00 TS 11.2000 65.7000 main 989 989 O_____________ jtwc_io IO032000 11.2000 65.7000 TS 35 0 12 258
2000331N09092 2000 107 NI AS NOT_NAMED 2000-12-03 15:00:00 TS 10.9850 65.0571 main 1058 1058 P_____________ IO032000 10.9850 65.0571 TS 32 -1 13 253
2000331N09092 2000 107 NI AS NOT_NAMED 2000-12-03 18:00:00 TS 10.8000 64.4000 main 1097 1030 O_____________ jtwc_io IO032000 10.8000 64.4000 TD 30 -1 12 267
2000331N09092 2000 107 NI AS NOT_NAMED 2000-12-03 21:00:00 TS 10.9223 63.8007 main 1030 964 P_____________ IO032000 10.9223 63.8007 TD 30 -1 12 280
2000331N09092 2000 107 NI AS NOT_NAMED 2000-12-04 00:00:00 TS 11.0000 63.2000 main 964 907 O_____________ jtwc_io IO032000 11.0000 63.2000 TD 30 -1 12 259
2000331N09092 2000 107 NI AS NOT_NAMED 2000-12-04 03:00:00 TS 10.6949 62.5571 main 907 847 P_____________ IO032000 10.6949 62.5571 TD 30 -1 15 241
2000331N09092 2000 107 NI AS NOT_NAMED 2000-12-04 06:00:00 TS 10.3000 61.9000 main 847 792 O_____________ jtwc_io IO032000 10.3000 61.9000 TD 30 -1 14 244
2000331N09092 2000 107 NI AS NOT_NAMED 2000-12-04 09:00:00 TS 10.0699 61.2427 main 782 731 P_____________ IO032000 10.0699 61.2427 TD 27 -1 13 253
2000331N09092 2000 107 NI AS NOT_NAMED 2000-12-04 12:00:00 TS 9.90000 60.6000 main 731 682 O_____________ jtwc_io IO032000 9.90000 60.6000 TD 25 -1 13 255
2000331N09092 2000 107 NI AS NOT_NAMED 2000-12-04 15:00:00 TS 9.72743 59.9775 main 682 631 P_____________ IO032000 9.72743 59.9775 TD 25 -1 12 256
2000331N09092 2000 107 NI AS NOT_NAMED 2000-12-04 18:00:00 TS 9.60000 59.4000 main 631 592 O_____________ jtwc_io IO032000 9.60000 59.4000 TD 25 -1 11 260
2000331N09092 2000 107 NI AS NOT_NAMED 2000-12-04 21:00:00 TS 9.54239 58.8776 main 592 549 P_____________ IO032000 9.54239 58.8776 TD 25 -1 10 264
2000331N09092 2000 107 NI AS NOT_NAMED 2000-12-05 00:00:00 TS 9.50000 58.4000 main 549 523 O_____________ jtwc_io IO032000 9.50000 58.4000 TD 25 -1 9 262
2000331N09092 2000 107 NI AS NOT_NAMED 2000-12-05 03:00:00 TS 9.40741 57.9425 main 516 493 P_____________ IO032000 9.40741 57.9425 TD 25 -1 9 257
2000331N09092 2000 107 NI AS NOT_NAMED 2000-12-05 06:00:00 TS 9.30000 57.5000 main 493 472 O_____________ jtwc_io IO032000 9.30000 57.5000 TD 25 -1 9 258
2000331N09092 2000 107 NI AS NOT_NAMED 2000-12-05 09:00:00 TS 9.21700 57.0575 main 475 454 P_____________ IO032000 9.21700 57.0575 TD 25 -1 9 257
2000331N09092 2000 107 NI AS NOT_NAMED 2000-12-05 12:00:00 TS 9.10000 56.6000 main 454 441 O_____________ jtwc_io IO032000 9.10000 56.6000 TD 25 -1 10 252
2000331N09092 2000 107 NI AS NOT_NAMED 2000-12-05 15:00:00 TS 8.90526 56.1088 main 444 438 P_____________ IO032000 8.90526 56.1088 TD 25 -1 11 245
2000331N09092 2000 107 NI AS NOT_NAMED 2000-12-05 18:00:00 TS 8.64196 55.5882 main 449 441 P_____________ IO032000 8.64196 55.5882 TD 25 -1 12 241
2000331N09092 2000 107 NI AS NOT_NAMED 2000-12-05 21:00:00 TS 8.33266 55.0486 main 459 433 P_____________ IO032000 8.33266 55.0486 TD 25 -1 13 239
2000331N09092 2000 107 NI AS NOT_NAMED 2000-12-06 00:00:00 TS 8.00000 54.5000 main 433 O_____________ jtwc_io IO032000 8.00000 54.5000 TD 25 -1 13 239

About IBTrACS Database

This database is a web-friendly format of International Best Track Archive for Climate Stewardship (IBTrACS), a global best track data archive curated by NOAA dating back to 1842.

Updated: 2021-10-19